createdAt,value
2022-10-04T00:00:22.790Z,100.00
2022-10-04T00:02:49.034Z,100.00
2022-10-04T00:05:20.110Z,100.00
2022-10-04T00:07:51.176Z,100.00
2022-10-04T00:10:25.096Z,100.00
2022-10-04T00:12:58.187Z,100.00
2022-10-04T00:15:30.416Z,100.00
2022-10-04T00:18:27.442Z,100.00
2022-10-04T00:20:53.373Z,100.00
2022-10-04T00:23:22.305Z,100.00
2022-10-04T00:25:48.100Z,100.00
2022-10-04T00:28:37.058Z,100.00
2022-10-04T00:31:21.609Z,100.00
2022-10-04T00:34:16.399Z,100.00
2022-10-04T00:36:51.442Z,100.00
2022-10-04T00:39:25.594Z,100.00
2022-10-04T00:42:39.267Z,100.00
2022-10-04T00:45:59.155Z,100.00
2022-10-04T00:48:41.684Z,100.00
2022-10-04T00:51:11.737Z,100.00
2022-10-04T00:54:05.207Z,100.00
2022-10-04T00:56:52.451Z,100.00
2022-10-04T00:59:39.197Z,100.00
2022-10-04T01:02:17.527Z,100.00
2022-10-04T01:04:59.660Z,100.00
2022-10-04T01:07:38.925Z,100.00
2022-10-04T01:10:17.761Z,100.00
2022-10-04T01:13:03.842Z,100.00
2022-10-04T01:15:57.315Z,100.00
2022-10-04T01:18:23.024Z,100.00
2022-10-04T01:20:53.740Z,100.00
2022-10-04T01:23:32.502Z,100.00
2022-10-04T01:25:58.606Z,100.00
2022-10-04T01:28:26.147Z,100.00
2022-10-04T01:30:52.806Z,100.00
2022-10-04T01:33:18.778Z,100.00
2022-10-04T01:35:44.594Z,100.00
2022-10-04T01:38:12.147Z,100.00
2022-10-04T01:40:47.779Z,100.00
2022-10-04T01:43:20.693Z,100.00
2022-10-04T01:45:52.744Z,100.00
2022-10-04T01:48:23.684Z,100.00
2022-10-04T01:51:04.944Z,100.00
2022-10-04T01:53:34.088Z,100.00
2022-10-04T01:56:22.902Z,100.00
2022-10-04T01:58:53.644Z,100.00
2022-10-04T02:01:29.913Z,100.00
2022-10-04T02:04:22.094Z,100.00
2022-10-04T02:06:53.432Z,100.00
2022-10-04T02:09:24.388Z,100.00
2022-10-04T02:11:53.415Z,100.00
2022-10-04T02:14:23.856Z,100.00
2022-10-04T02:16:53.104Z,100.00
2022-10-04T02:19:26.793Z,100.00
2022-10-04T02:21:54.730Z,100.00
2022-10-04T02:24:20.918Z,100.00
2022-10-04T02:26:51.305Z,100.00
2022-10-04T02:29:19.779Z,100.00
2022-10-04T02:32:07.935Z,100.00
2022-10-04T02:34:34.394Z,100.00
2022-10-04T02:37:05.105Z,100.00
2022-10-04T02:39:43.364Z,100.00
2022-10-04T02:42:19.704Z,100.00
2022-10-04T02:44:58.414Z,100.00
2022-10-04T02:47:41.645Z,100.00
2022-10-04T02:50:20.261Z,100.00
2022-10-04T02:52:52.772Z,100.00
2022-10-04T02:55:28.921Z,100.00
2022-10-04T02:57:57.665Z,100.00
2022-10-04T03:00:29.501Z,100.00
2022-10-04T03:03:15.294Z,100.00
2022-10-04T03:05:44.225Z,100.00
2022-10-04T03:08:11.271Z,100.00
2022-10-04T03:10:37.580Z,100.00
2022-10-04T03:13:04.130Z,100.00
2022-10-04T03:15:31.143Z,100.00
2022-10-04T03:17:58.960Z,100.00
2022-10-04T03:20:25.050Z,100.00
2022-10-04T03:22:54.916Z,100.00
2022-10-04T03:25:28.121Z,100.00
2022-10-04T03:27:58.980Z,100.00
2022-10-04T03:30:24.921Z,100.00
2022-10-04T03:32:51.080Z,100.00
2022-10-04T03:35:35.710Z,100.00
2022-10-04T03:38:08.200Z,100.00
2022-10-04T03:40:37.063Z,100.00
2022-10-04T03:43:04.827Z,100.00
2022-10-04T03:45:34.418Z,100.00
2022-10-04T03:48:07.311Z,100.00
2022-10-04T03:50:38.511Z,100.00
2022-10-04T03:53:15.380Z,100.00
2022-10-04T03:55:43.642Z,100.00
2022-10-04T03:58:16.310Z,100.00
2022-10-04T04:00:52.583Z,100.00
2022-10-04T04:03:20.928Z,100.00
2022-10-04T04:05:53.741Z,100.00
2022-10-04T04:08:53.815Z,100.00
2022-10-04T04:11:26.982Z,100.00
2022-10-04T04:14:10.213Z,100.00
2022-10-04T04:16:37.472Z,100.00
2022-10-04T04:19:10.644Z,100.00
2022-10-04T04:21:36.885Z,100.00
2022-10-04T04:24:07.629Z,100.00
2022-10-04T04:26:42.304Z,100.00
2022-10-04T04:29:23.869Z,100.00
2022-10-04T04:31:58.480Z,100.00
2022-10-04T04:34:30.202Z,100.00
2022-10-04T04:37:00.723Z,100.00
2022-10-04T04:39:36.541Z,100.00
2022-10-04T04:42:16.479Z,100.00
2022-10-04T04:44:54.384Z,100.00
2022-10-04T04:47:34.167Z,100.00
2022-10-04T04:50:18.710Z,100.00
2022-10-04T04:52:49.464Z,100.00
2022-10-04T04:55:19.299Z,100.00
2022-10-04T04:57:47.296Z,100.00
2022-10-04T05:00:25.392Z,100.00
2022-10-04T05:03:00.285Z,100.00
2022-10-04T05:05:31.120Z,100.00
2022-10-04T05:08:15.424Z,100.00
2022-10-04T05:11:07.603Z,100.00
2022-10-04T05:13:46.005Z,100.00
2022-10-04T05:16:18.990Z,100.00
2022-10-04T05:18:45.642Z,100.00
2022-10-04T05:21:19.878Z,100.00
2022-10-04T05:23:46.094Z,100.00
2022-10-04T05:26:13.715Z,100.00
2022-10-04T05:28:40.685Z,100.00
2022-10-04T05:31:33.467Z,100.00
2022-10-04T05:33:59.550Z,100.00
2022-10-04T05:36:37.462Z,100.00
2022-10-04T05:39:21.603Z,100.00
2022-10-04T05:42:01.806Z,100.00
2022-10-04T05:44:44.163Z,100.00
2022-10-04T05:47:13.523Z,100.00
2022-10-04T05:49:45.663Z,100.00
2022-10-04T05:52:27.188Z,100.00
2022-10-04T05:55:36.867Z,100.00
2022-10-04T05:58:25.946Z,100.00
2022-10-04T06:01:22.934Z,100.00
2022-10-04T06:03:56.876Z,100.00
2022-10-04T06:06:53.765Z,100.00
2022-10-04T06:09:39.808Z,100.00
2022-10-04T06:12:25.642Z,100.00
2022-10-04T06:15:07.360Z,100.00
2022-10-04T06:17:54.309Z,100.00
2022-10-04T06:20:38.129Z,100.00
2022-10-04T06:23:11.243Z,100.00
2022-10-04T06:26:00.528Z,100.00
2022-10-04T06:28:26.281Z,100.00
2022-10-04T06:31:17.666Z,100.00
2022-10-04T06:33:56.902Z,100.00
2022-10-04T06:36:51.327Z,100.00
2022-10-04T06:39:26.226Z,100.00
2022-10-04T06:42:09.724Z,100.00
2022-10-04T06:44:47.260Z,100.00
2022-10-04T06:47:43.900Z,100.00
2022-10-04T06:50:36.026Z,100.00
2022-10-04T06:53:21.418Z,100.00
2022-10-04T06:56:16.345Z,100.00
2022-10-04T06:59:02.371Z,100.00
2022-10-04T07:01:34.259Z,100.00
2022-10-04T07:05:07.190Z,100.00
2022-10-04T07:07:38.007Z,100.00
2022-10-04T07:10:30.280Z,100.00
2022-10-04T07:13:15.614Z,100.00
2022-10-04T07:15:44.139Z,100.00
2022-10-04T07:18:17.712Z,100.00
2022-10-04T07:20:44.863Z,100.00
2022-10-04T07:23:28.230Z,100.00
2022-10-04T07:25:59.865Z,100.00
2022-10-04T07:28:50.665Z,100.00
2022-10-04T07:31:16.472Z,100.00
2022-10-04T07:33:49.652Z,100.00
2022-10-04T07:36:22.163Z,100.00
2022-10-04T07:38:52.799Z,100.00
2022-10-04T07:41:52.902Z,100.00
2022-10-04T07:44:35.321Z,100.00
2022-10-04T07:47:19.922Z,100.00
2022-10-04T07:49:47.924Z,100.00
2022-10-04T07:52:25.189Z,100.00
2022-10-04T07:55:01.344Z,100.00
2022-10-04T07:57:27.206Z,100.00
2022-10-04T08:00:11.700Z,100.00
2022-10-04T08:02:50.962Z,100.00
2022-10-04T08:05:21.927Z,100.00
2022-10-04T08:07:56.694Z,100.00
2022-10-04T08:10:34.746Z,100.00
2022-10-04T08:13:35.787Z,100.00
2022-10-04T08:16:11.868Z,100.00
2022-10-04T08:19:07.861Z,100.00
2022-10-04T08:22:01.568Z,100.00
2022-10-04T08:24:35.977Z,100.00
2022-10-04T08:27:36.277Z,100.00
2022-10-04T08:30:20.175Z,100.00
2022-10-04T08:33:36.477Z,100.00
2022-10-04T08:36:18.211Z,100.00
2022-10-04T08:38:51.651Z,100.00
2022-10-04T08:41:35.445Z,100.00
2022-10-04T08:44:22.848Z,100.00
2022-10-04T08:47:25.505Z,100.00
2022-10-04T08:50:03.474Z,100.00
2022-10-04T08:53:02.177Z,100.00
2022-10-04T08:55:47.035Z,100.00
2022-10-04T08:59:02.203Z,100.00
2022-10-04T09:02:24.786Z,100.00
2022-10-04T09:05:18.413Z,100.00
2022-10-04T09:07:59.584Z,100.00
2022-10-04T09:10:38.118Z,100.00
2022-10-04T09:13:37.199Z,100.00
2022-10-04T09:16:19.549Z,100.00
2022-10-04T09:19:26.820Z,100.00
2022-10-04T09:21:55.283Z,100.00
2022-10-04T09:25:11.037Z,99.20
2022-10-04T09:27:55.065Z,99.37
2022-10-04T09:30:37.382Z,97.40
2022-10-04T09:33:15.038Z,98.07
2022-10-04T09:35:57.667Z,97.83
2022-10-04T09:38:32.444Z,96.96
2022-10-04T09:41:21.092Z,92.88
2022-10-04T09:43:53.619Z,89.38
2022-10-04T09:46:54.470Z,86.11
2022-10-04T09:49:26.706Z,81.23
2022-10-04T09:52:22.800Z,75.31
2022-10-04T09:55:16.889Z,71.18
2022-10-04T09:57:47.723Z,68.93
2022-10-04T10:00:21.429Z,69.10
2022-10-04T10:02:56.275Z,69.26
2022-10-04T10:05:59.263Z,69.06
2022-10-04T10:08:40.839Z,65.82
2022-10-04T10:11:38.977Z,63.89
2022-10-04T10:14:32.812Z,63.13
2022-10-04T10:17:26.834Z,64.14
2022-10-04T10:20:08.861Z,62.96
2022-10-04T10:22:46.682Z,61.24
2022-10-04T10:25:46.577Z,59.96
2022-10-04T10:28:24.475Z,59.01
2022-10-04T10:31:10.990Z,59.07
2022-10-04T10:34:04.179Z,62.18
2022-10-04T10:36:51.680Z,60.64
2022-10-04T10:39:36.214Z,59.47
2022-10-04T10:42:27.032Z,59.09
2022-10-04T10:45:16.956Z,58.20
2022-10-04T10:48:08.549Z,57.37
2022-10-04T10:50:57.674Z,56.89
2022-10-04T10:53:54.509Z,54.08
2022-10-04T10:56:49.670Z,57.01
2022-10-04T10:59:36.342Z,54.77
2022-10-04T11:02:48.668Z,54.28
2022-10-04T11:05:33.455Z,52.15
2022-10-04T11:08:29.140Z,53.53
2022-10-04T11:11:13.143Z,51.14
2022-10-04T11:13:59.649Z,50.86
2022-10-04T11:16:56.443Z,48.99
2022-10-04T11:19:54.708Z,48.80
2022-10-04T11:22:51.036Z,48.27
2022-10-04T11:25:58.994Z,46.81
2022-10-04T11:28:55.977Z,45.81
2022-10-04T11:31:45.072Z,45.72
2022-10-04T11:34:29.484Z,44.88
2022-10-04T11:37:01.997Z,45.88
2022-10-04T11:39:55.578Z,42.44
2022-10-04T11:43:12.378Z,42.93
2022-10-04T11:45:38.052Z,40.70
2022-10-04T11:48:10.516Z,39.66
2022-10-04T11:51:02.443Z,37.70
2022-10-04T11:53:57.525Z,36.25
2022-10-04T11:56:43.286Z,35.18
2022-10-04T11:59:28.155Z,35.19
2022-10-04T12:02:15.702Z,32.68
2022-10-04T12:05:16.815Z,31.83
2022-10-04T12:08:05.320Z,31.14
2022-10-04T12:10:37.871Z,28.25
2022-10-04T12:13:06.325Z,28.42
2022-10-04T12:15:44.280Z,26.71
2022-10-04T12:18:11.548Z,26.71
2022-10-04T12:21:15.385Z,27.01
2022-10-04T12:23:44.304Z,25.27
2022-10-04T12:26:22.089Z,24.92
2022-10-04T12:29:21.233Z,26.83
2022-10-04T12:32:31.926Z,27.85
2022-10-04T12:35:21.640Z,26.37
2022-10-04T12:38:21.530Z,30.25
2022-10-04T12:41:28.073Z,30.97
2022-10-04T12:44:02.190Z,30.37
2022-10-04T12:47:05.177Z,26.05
2022-10-04T12:49:59.714Z,24.78
2022-10-04T12:52:32.165Z,25.22
2022-10-04T12:55:37.277Z,25.19
2022-10-04T12:58:09.869Z,24.75
2022-10-04T13:00:42.361Z,22.98
2022-10-04T13:03:43.154Z,23.77
2022-10-04T13:06:32.399Z,23.11
2022-10-04T13:09:04.279Z,26.13
2022-10-04T13:11:56.601Z,28.90
2022-10-04T13:14:33.660Z,28.84
2022-10-04T13:17:28.227Z,32.00
2022-10-04T13:20:25.327Z,31.65
2022-10-04T13:23:20.842Z,31.55
2022-10-04T13:26:05.136Z,31.26
2022-10-04T13:28:41.593Z,33.24
2022-10-04T13:31:32.424Z,35.88
2022-10-04T13:34:40.493Z,37.98
2022-10-04T13:37:27.823Z,38.65
2022-10-04T13:40:13.832Z,40.52
2022-10-04T13:42:58.377Z,37.81
2022-10-04T13:45:49.324Z,37.71
2022-10-04T13:48:27.159Z,37.46
2022-10-04T13:51:34.558Z,39.42
2022-10-04T13:54:53.346Z,39.19
2022-10-04T13:57:29.900Z,39.50
2022-10-04T14:00:04.585Z,40.91
2022-10-04T14:03:07.287Z,42.31
2022-10-04T14:05:37.130Z,42.38
2022-10-04T14:08:37.862Z,43.71
2022-10-04T14:11:24.455Z,43.11
2022-10-04T14:14:19.333Z,43.10
2022-10-04T14:17:06.727Z,44.71
2022-10-04T14:20:10.083Z,46.24
2022-10-04T14:22:45.570Z,46.02
2022-10-04T14:25:20.291Z,47.31
2022-10-04T14:28:00.372Z,48.83
2022-10-04T14:31:03.382Z,48.04
2022-10-04T14:33:38.384Z,48.81
2022-10-04T14:36:19.163Z,48.83
2022-10-04T14:38:53.954Z,49.91
2022-10-04T14:41:44.693Z,52.02
2022-10-04T14:44:27.527Z,50.90
2022-10-04T14:47:17.877Z,52.54
2022-10-04T14:50:04.717Z,53.88
2022-10-04T14:52:44.075Z,53.24
2022-10-04T14:55:34.162Z,54.44
2022-10-04T14:58:17.212Z,56.37
2022-10-04T15:00:59.326Z,56.04
2022-10-04T15:03:29.159Z,55.73
2022-10-04T15:06:11.028Z,54.79
2022-10-04T15:08:55.030Z,55.55
2022-10-04T15:11:42.349Z,58.23
2022-10-04T15:14:26.680Z,58.59
2022-10-04T15:16:58.130Z,60.45
2022-10-04T15:19:32.130Z,61.25
2022-10-04T15:22:23.298Z,61.84
2022-10-04T15:24:51.414Z,64.08
2022-10-04T15:27:29.091Z,65.33
2022-10-04T15:30:16.287Z,65.77
2022-10-04T15:33:06.663Z,66.48
2022-10-04T15:35:53.294Z,67.42
2022-10-04T15:38:34.204Z,67.45
2022-10-04T15:41:04.209Z,67.96
2022-10-04T15:43:43.912Z,67.76
2022-10-04T15:46:28.689Z,68.93
2022-10-04T15:49:30.279Z,69.69
2022-10-04T15:52:40.783Z,71.22
2022-10-04T15:55:37.332Z,70.54
2022-10-04T15:58:19.188Z,71.83
2022-10-04T16:00:59.222Z,71.69
2022-10-04T16:03:33.967Z,72.50
2022-10-04T16:06:27.203Z,73.91
2022-10-04T16:09:14.890Z,73.41
2022-10-04T16:11:57.460Z,75.07
2022-10-04T16:14:37.252Z,75.66
2022-10-04T16:17:35.471Z,75.23
2022-10-04T16:20:33.550Z,76.63
2022-10-04T16:23:23.752Z,77.90
2022-10-04T16:25:51.887Z,78.55
2022-10-04T16:28:26.260Z,79.57
2022-10-04T16:31:20.165Z,79.74
2022-10-04T16:34:11.196Z,81.29
2022-10-04T16:36:43.600Z,82.14
2022-10-04T16:39:29.442Z,82.80
2022-10-04T16:42:01.291Z,82.48
2022-10-04T16:44:45.933Z,83.54
2022-10-04T16:47:40.181Z,83.77
2022-10-04T16:50:10.988Z,84.66
2022-10-04T16:53:16.764Z,85.69
2022-10-04T16:55:55.525Z,86.93
2022-10-04T16:58:27.477Z,87.11
2022-10-04T17:01:27.950Z,86.84
2022-10-04T17:04:02.960Z,86.92
2022-10-04T17:06:44.131Z,87.93
2022-10-04T17:09:25.434Z,89.47
2022-10-04T17:12:19.217Z,88.99
2022-10-04T17:14:53.937Z,89.52
2022-10-04T17:17:41.741Z,90.18
2022-10-04T17:20:25.792Z,89.99
2022-10-04T17:23:28.323Z,90.43
2022-10-04T17:26:06.606Z,90.82
2022-10-04T17:29:03.250Z,91.22
2022-10-04T17:31:29.195Z,92.50
2022-10-04T17:34:13.744Z,92.61
2022-10-04T17:36:54.119Z,92.81
2022-10-04T17:39:33.333Z,93.98
2022-10-04T17:42:12.483Z,93.65
2022-10-04T17:45:16.914Z,93.30
2022-10-04T17:48:20.041Z,94.78
2022-10-04T17:51:30.940Z,94.97
2022-10-04T17:54:30.485Z,94.82
2022-10-04T17:57:02.554Z,94.80
2022-10-04T17:59:38.043Z,95.75
2022-10-04T18:02:10.972Z,95.30
2022-10-04T18:04:49.754Z,96.10
2022-10-04T18:07:23.698Z,95.72
2022-10-04T18:09:58.106Z,95.65
2022-10-04T18:12:29.339Z,95.84
2022-10-04T18:15:02.816Z,96.89
2022-10-04T18:17:41.270Z,96.09
2022-10-04T18:20:07.485Z,96.66
2022-10-04T18:22:46.024Z,96.30
2022-10-04T18:25:14.217Z,96.17
2022-10-04T18:28:10.791Z,96.70
2022-10-04T18:30:45.567Z,96.66
2022-10-04T18:33:16.602Z,96.97
2022-10-04T18:35:54.492Z,95.89
2022-10-04T18:38:35.631Z,95.79
2022-10-04T18:41:17.013Z,95.88
2022-10-04T18:43:57.023Z,95.25
2022-10-04T18:46:24.306Z,95.43
2022-10-04T18:49:01.562Z,95.48
2022-10-04T18:51:39.995Z,95.14
2022-10-04T18:54:20.836Z,95.11
2022-10-04T18:56:53.233Z,95.51
2022-10-04T19:00:06.578Z,95.46
2022-10-04T19:02:43.225Z,96.09
2022-10-04T19:05:22.780Z,95.38
2022-10-04T19:08:21.007Z,96.54
2022-10-04T19:11:02.228Z,96.95
2022-10-04T19:13:40.974Z,97.59
2022-10-04T19:16:39.220Z,97.46
2022-10-04T19:19:09.679Z,98.66
2022-10-04T19:21:58.401Z,97.79
2022-10-04T19:24:39.178Z,97.94
2022-10-04T19:27:29.412Z,99.04
2022-10-04T19:30:14.345Z,98.68
2022-10-04T19:33:02.650Z,99.19
2022-10-04T19:35:50.243Z,99.09
2022-10-04T19:38:37.897Z,99.50
2022-10-04T19:41:48.212Z,100.00
2022-10-04T19:44:23.365Z,100.00
2022-10-04T19:46:59.920Z,100.00
2022-10-04T19:49:39.763Z,100.00
2022-10-04T19:52:52.605Z,100.00
2022-10-04T19:55:33.818Z,100.00
2022-10-04T19:58:07.840Z,100.00
2022-10-04T20:00:35.096Z,100.00
2022-10-04T20:03:01.007Z,100.00
2022-10-04T20:05:27.513Z,100.00
2022-10-04T20:08:04.506Z,100.00
2022-10-04T20:10:33.028Z,100.00
2022-10-04T20:13:12.597Z,100.00
2022-10-04T20:15:38.417Z,100.00
2022-10-04T20:18:32.177Z,100.00
2022-10-04T20:20:59.261Z,100.00
2022-10-04T20:23:48.817Z,100.00
2022-10-04T20:26:54.388Z,100.00
2022-10-04T20:29:35.850Z,100.00
2022-10-04T20:32:03.471Z,100.00
2022-10-04T20:34:38.519Z,100.00
2022-10-04T20:37:07.532Z,100.00
2022-10-04T20:39:39.423Z,100.00
2022-10-04T20:42:19.099Z,100.00
2022-10-04T20:44:55.031Z,100.00
2022-10-04T20:47:28.215Z,100.00
2022-10-04T20:49:57.145Z,100.00
2022-10-04T20:52:27.882Z,100.00
2022-10-04T20:54:54.438Z,100.00
2022-10-04T20:57:23.225Z,100.00
2022-10-04T20:59:53.945Z,100.00
2022-10-04T21:02:22.203Z,100.00
2022-10-04T21:04:51.550Z,100.00
2022-10-04T21:07:22.632Z,100.00
2022-10-04T21:09:49.398Z,100.00
2022-10-04T21:12:37.486Z,100.00
2022-10-04T21:15:05.665Z,100.00
2022-10-04T21:17:31.451Z,100.00
2022-10-04T21:19:57.499Z,100.00
2022-10-04T21:22:26.075Z,100.00
2022-10-04T21:24:57.682Z,100.00
2022-10-04T21:27:35.070Z,100.00
2022-10-04T21:30:06.202Z,100.00
2022-10-04T21:32:34.644Z,100.00
2022-10-04T21:35:00.841Z,100.00
2022-10-04T21:37:26.614Z,100.00
2022-10-04T21:39:52.408Z,100.00
2022-10-04T21:42:18.258Z,100.00
2022-10-04T21:44:44.310Z,100.00
2022-10-04T21:47:10.479Z,100.00
2022-10-04T21:49:36.559Z,100.00
2022-10-04T21:52:02.663Z,100.00
2022-10-04T21:54:28.580Z,100.00
2022-10-04T21:56:54.325Z,100.00
2022-10-04T21:59:20.757Z,100.00
2022-10-04T22:01:46.653Z,100.00
2022-10-04T22:04:12.447Z,100.00
2022-10-04T22:06:38.509Z,100.00
2022-10-04T22:09:04.427Z,100.00
2022-10-04T22:11:30.340Z,100.00
2022-10-04T22:13:56.133Z,100.00
2022-10-04T22:16:21.976Z,100.00
2022-10-04T22:18:47.853Z,100.00
2022-10-04T22:21:13.767Z,100.00
2022-10-04T22:23:42.510Z,100.00
2022-10-04T22:26:20.360Z,100.00
2022-10-04T22:28:49.453Z,100.00
2022-10-04T22:31:18.445Z,100.00
2022-10-04T22:33:46.393Z,100.00
2022-10-04T22:36:34.945Z,100.00
2022-10-04T22:39:10.178Z,100.00
2022-10-04T22:41:40.908Z,100.00
2022-10-04T22:44:17.251Z,100.00
2022-10-04T22:46:47.484Z,100.00
2022-10-04T22:49:16.492Z,100.00
2022-10-04T22:51:44.261Z,100.00
2022-10-04T22:54:11.921Z,100.00
2022-10-04T22:56:38.335Z,100.00
2022-10-04T22:59:04.440Z,100.00
2022-10-04T23:01:31.107Z,100.00
2022-10-04T23:03:57.570Z,100.00
2022-10-04T23:06:23.365Z,100.00
2022-10-04T23:08:49.134Z,100.00
2022-10-04T23:11:14.902Z,100.00
2022-10-04T23:13:40.774Z,100.00
2022-10-04T23:16:13.517Z,100.00
2022-10-04T23:18:40.209Z,100.00
2022-10-04T23:21:18.868Z,100.00
2022-10-04T23:23:46.169Z,100.00
2022-10-04T23:26:21.404Z,100.00
2022-10-04T23:28:47.199Z,100.00
2022-10-04T23:31:23.115Z,100.00
2022-10-04T23:33:50.684Z,100.00
2022-10-04T23:36:17.236Z,100.00
2022-10-04T23:38:58.244Z,100.00
2022-10-04T23:41:24.750Z,100.00
2022-10-04T23:43:50.841Z,100.00
2022-10-04T23:46:21.063Z,100.00
2022-10-04T23:48:47.472Z,100.00
2022-10-04T23:51:18.009Z,100.00
2022-10-04T23:53:47.365Z,100.00
2022-10-04T23:56:20.816Z,100.00
2022-10-04T23:58:49.065Z,100.00
